sensor_id;sensor_type;location;lat;lon;timestamp;pressure;altitude;pressure_sealevel;temperature;humidity
23223;BME280;11780;13.904;100.620;2023-02-19T00:00:26;101275.72;;;28.85;55.04
23223;BME280;11780;13.904;100.620;2023-02-19T00:02:57;101276.31;;;28.82;55.34
23223;BME280;11780;13.904;100.620;2023-02-19T00:05:27;101286.28;;;28.78;55.15
23223;BME280;11780;13.904;100.620;2023-02-19T00:07:57;101292.44;;;28.70;55.26
23223;BME280;11780;13.904;100.620;2023-02-19T00:10:27;101297.19;;;28.64;55.18
23223;BME280;11780;13.904;100.620;2023-02-19T00:12:57;101292.97;;;28.48;55.38
23223;BME280;11780;13.904;100.620;2023-02-19T00:15:27;101299.66;;;28.41;55.63
23223;BME280;11780;13.904;100.620;2023-02-19T00:17:57;101301.06;;;28.39;55.85
23223;BME280;11780;13.904;100.620;2023-02-19T00:20:27;101309.59;;;28.37;55.77
23223;BME280;11780;13.904;100.620;2023-02-19T00:22:57;101310.44;;;28.38;55.77
23223;BME280;11780;13.904;100.620;2023-02-19T00:25:27;101322.81;;;28.35;55.96
23223;BME280;11780;13.904;100.620;2023-02-19T00:27:57;101317.84;;;28.37;55.99
23223;BME280;11780;13.904;100.620;2023-02-19T00:30:27;101319.25;;;28.35;56.25
23223;BME280;11780;13.904;100.620;2023-02-19T00:32:57;101314.88;;;28.34;56.33
23223;BME280;11780;13.904;100.620;2023-02-19T00:35:28;101319.72;;;28.42;56.29
23223;BME280;11780;13.904;100.620;2023-02-19T00:37:58;101321.44;;;28.38;56.16
23223;BME280;11780;13.904;100.620;2023-02-19T00:40:29;101322.31;;;28.33;56.35
23223;BME280;11780;13.904;100.620;2023-02-19T00:43:00;101321.72;;;28.36;56.35
23223;BME280;11780;13.904;100.620;2023-02-19T00:45:30;101332.19;;;28.34;56.38
23223;BME280;11780;13.904;100.620;2023-02-19T00:48:01;101336.06;;;28.33;56.36
23223;BME280;11780;13.904;100.620;2023-02-19T00:50:31;101340.22;;;28.31;56.56
23223;BME280;11780;13.904;100.620;2023-02-19T00:53:01;101343.78;;;28.31;56.74
23223;BME280;11780;13.904;100.620;2023-02-19T00:55:31;101343.78;;;28.31;56.89
23223;BME280;11780;13.904;100.620;2023-02-19T00:58:02;101347.34;;;28.32;56.77
23223;BME280;11780;13.904;100.620;2023-02-19T01:00:32;101348.78;;;28.29;57.11
23223;BME280;11780;13.904;100.620;2023-02-19T01:03:02;101355.03;;;28.35;57.03
23223;BME280;11780;13.904;100.620;2023-02-19T01:05:32;101352.28;;;28.35;56.73
23223;BME280;11780;13.904;100.620;2023-02-19T01:08:03;101352.31;;;28.30;56.77
23223;BME280;11780;13.904;100.620;2023-02-19T01:10:33;101351.97;;;28.36;56.92
23223;BME280;11780;13.904;100.620;2023-02-19T01:13:03;101359.88;;;28.43;56.72
23223;BME280;11780;13.904;100.620;2023-02-19T01:15:33;101368.13;;;28.43;56.66
23223;BME280;11780;13.904;100.620;2023-02-19T01:18:04;101367.03;;;28.44;56.70
23223;BME280;11780;13.904;100.620;2023-02-19T01:20:37;101375.53;;;28.48;56.76
23223;BME280;11780;13.904;100.620;2023-02-19T01:23:10;101374.13;;;28.50;56.64
23223;BME280;11780;13.904;100.620;2023-02-19T01:25:41;101368.03;;;28.53;56.75
23223;BME280;11780;13.904;100.620;2023-02-19T01:29:13;101371.19;;;28.66;56.86
23223;BME280;11780;13.904;100.620;2023-02-19T01:31:44;101375.13;;;28.60;57.02
23223;BME280;11780;13.904;100.620;2023-02-19T01:34:15;101371.38;;;28.50;57.21
23223;BME280;11780;13.904;100.620;2023-02-19T01:36:45;101380.63;;;28.60;57.27
23223;BME280;11780;13.904;100.620;2023-02-19T01:39:16;101374.09;;;28.55;57.01
23223;BME280;11780;13.904;100.620;2023-02-19T01:41:46;101374.59;;;28.57;57.03
23223;BME280;11780;13.904;100.620;2023-02-19T01:46:48;101373.56;;;28.53;56.62
23223;BME280;11780;13.904;100.620;2023-02-19T01:49:32;101384.16;;;28.41;56.57
23223;BME280;11780;13.904;100.620;2023-02-19T01:52:15;101387.84;;;28.55;56.79
23223;BME280;11780;13.904;100.620;2023-02-19T01:54:48;101388.88;;;28.60;56.64
23223;BME280;11780;13.904;100.620;2023-02-19T01:57:22;101387.78;;;28.61;56.64
23223;BME280;11780;13.904;100.620;2023-02-19T01:59:57;101393.00;;;28.62;56.79
23223;BME280;11780;13.904;100.620;2023-02-19T02:02:39;101395.22;;;28.60;56.80
23223;BME280;11780;13.904;100.620;2023-02-19T02:05:40;101397.63;;;28.67;56.71
23223;BME280;11780;13.904;100.620;2023-02-19T02:08:07;101405.03;;;28.66;56.97
23223;BME280;11780;13.904;100.620;2023-02-19T02:10:56;101417.00;;;28.56;56.82
23223;BME280;11780;13.904;100.620;2023-02-19T02:13:27;101405.88;;;28.67;56.95
23223;BME280;11780;13.904;100.620;2023-02-19T02:35:50;101427.81;;;28.77;57.23
23223;BME280;11780;13.904;100.620;2023-02-19T02:38:24;101423.06;;;28.83;57.19
23223;BME280;11780;13.904;100.620;2023-02-19T02:40:57;101424.97;;;28.88;57.16
23223;BME280;11780;13.904;100.620;2023-02-19T02:43:29;101430.97;;;28.90;57.35
23223;BME280;11780;13.904;100.620;2023-02-19T02:45:59;101425.47;;;28.90;57.45
23223;BME280;11780;13.904;100.620;2023-02-19T02:48:33;101418.56;;;28.92;57.13
23223;BME280;11780;13.904;100.620;2023-02-19T02:56:49;101414.41;;;28.95;57.04
23223;BME280;11780;13.904;100.620;2023-02-19T02:59:25;101417.38;;;28.98;57.18
23223;BME280;11780;13.904;100.620;2023-02-19T03:02:01;101401.69;;;28.99;57.06
23223;BME280;11780;13.904;100.620;2023-02-19T03:10:38;101398.41;;;29.16;57.44
23223;BME280;11780;13.904;100.620;2023-02-19T03:13:13;101391.81;;;29.17;57.51
23223;BME280;11780;13.904;100.620;2023-02-19T03:16:24;101395.25;;;29.28;57.48
23223;BME280;11780;13.904;100.620;2023-02-19T03:19:19;101400.44;;;29.29;57.42
23223;BME280;11780;13.904;100.620;2023-02-19T03:22:00;101393.06;;;29.25;56.99
23223;BME280;11780;13.904;100.620;2023-02-19T03:24:44;101382.56;;;29.27;56.82
23223;BME280;11780;13.904;100.620;2023-02-19T03:27:35;101368.72;;;29.32;57.29
23223;BME280;11780;13.904;100.620;2023-02-19T03:30:18;101368.19;;;29.35;56.72
23223;BME280;11780;13.904;100.620;2023-02-19T03:33:14;101364.81;;;29.38;57.14
23223;BME280;11780;13.904;100.620;2023-02-19T03:35:53;101354.81;;;29.42;56.52
23223;BME280;11780;13.904;100.620;2023-02-19T03:38:38;101359.22;;;29.43;56.54
23223;BME280;11780;13.904;100.620;2023-02-19T03:44:12;101354.44;;;29.49;56.32
23223;BME280;11780;13.904;100.620;2023-02-19T03:47:04;101354.16;;;29.51;55.81
23223;BME280;11780;13.904;100.620;2023-02-19T03:58:19;101324.09;;;29.68;56.17
23223;BME280;11780;13.904;100.620;2023-02-19T04:00:56;101317.44;;;29.69;56.02
23223;BME280;11780;13.904;100.620;2023-02-19T04:03:58;101312.59;;;29.80;55.80
23223;BME280;11780;13.904;100.620;2023-02-19T04:06:33;101311.78;;;29.80;55.02
23223;BME280;11780;13.904;100.620;2023-02-19T04:09:08;101301.28;;;29.82;55.18
23223;BME280;11780;13.904;100.620;2023-02-19T04:11:47;101296.75;;;29.86;54.79
23223;BME280;11780;13.904;100.620;2023-02-19T04:14:38;101287.97;;;29.84;54.05
23223;BME280;11780;13.904;100.620;2023-02-19T04:17:22;101291.25;;;29.86;53.80
23223;BME280;11780;13.904;100.620;2023-02-19T04:19:54;101279.41;;;29.85;54.04
23223;BME280;11780;13.904;100.620;2023-02-19T04:22:26;101277.97;;;29.88;53.74
23223;BME280;11780;13.904;100.620;2023-02-19T04:24:57;101278.81;;;29.88;54.34
23223;BME280;11780;13.904;100.620;2023-02-19T04:27:27;101271.03;;;29.90;53.28
23223;BME280;11780;13.904;100.620;2023-02-19T04:29:57;101268.50;;;29.94;53.33
23223;BME280;11780;13.904;100.620;2023-02-19T04:32:27;101255.97;;;30.02;53.10
23223;BME280;11780;13.904;100.620;2023-02-19T04:34:58;101260.06;;;30.04;53.25
23223;BME280;11780;13.904;100.620;2023-02-19T04:37:28;101253.94;;;30.07;53.72
23223;BME280;11780;13.904;100.620;2023-02-19T04:39:59;101248.69;;;30.06;53.33
23223;BME280;11780;13.904;100.620;2023-02-19T04:42:30;101247.69;;;30.16;53.08
23223;BME280;11780;13.904;100.620;2023-02-19T04:45:01;101252.91;;;30.17;52.51
23223;BME280;11780;13.904;100.620;2023-02-19T04:47:31;101236.13;;;30.14;52.76
23223;BME280;11780;13.904;100.620;2023-02-19T04:50:02;101240.22;;;30.16;52.23
23223;BME280;11780;13.904;100.620;2023-02-19T04:52:33;101235.75;;;30.20;52.73
23223;BME280;11780;13.904;100.620;2023-02-19T04:55:04;101226.22;;;30.27;52.85
23223;BME280;11780;13.904;100.620;2023-02-19T04:57:34;101228.19;;;30.26;52.63
23223;BME280;11780;13.904;100.620;2023-02-19T05:00:06;101226.03;;;30.23;51.98
23223;BME280;11780;13.904;100.620;2023-02-19T05:02:37;101227.84;;;30.28;52.21
23223;BME280;11780;13.904;100.620;2023-02-19T05:05:07;101211.63;;;30.26;51.66
23223;BME280;11780;13.904;100.620;2023-02-19T05:07:37;101208.34;;;30.24;50.33
23223;BME280;11780;13.904;100.620;2023-02-19T05:10:07;101209.56;;;30.18;50.54
23223;BME280;11780;13.904;100.620;2023-02-19T05:12:38;101202.81;;;30.24;50.63
23223;BME280;11780;13.904;100.620;2023-02-19T05:15:07;101204.25;;;30.21;50.91
23223;BME280;11780;13.904;100.620;2023-02-19T05:17:37;101184.81;;;30.27;50.34
23223;BME280;11780;13.904;100.620;2023-02-19T05:20:09;101182.38;;;30.25;50.57
23223;BME280;11780;13.904;100.620;2023-02-19T05:22:39;101174.91;;;30.26;50.48
23223;BME280;11780;13.904;100.620;2023-02-19T05:25:09;101172.34;;;30.29;50.03
23223;BME280;11780;13.904;100.620;2023-02-19T05:27:39;101165.22;;;30.28;50.63
23223;BME280;11780;13.904;100.620;2023-02-19T05:30:10;101167.66;;;30.30;50.60
23223;BME280;11780;13.904;100.620;2023-02-19T05:32:40;101153.25;;;30.33;50.80
23223;BME280;11780;13.904;100.620;2023-02-19T05:35:10;101153.13;;;30.38;50.04
23223;BME280;11780;13.904;100.620;2023-02-19T05:37:40;101144.28;;;30.50;48.79
23223;BME280;11780;13.904;100.620;2023-02-19T11:57:46;100925.03;;;30.42;57.62
23223;BME280;11780;13.904;100.620;2023-02-19T12:00:25;100927.50;;;30.44;57.74
23223;BME280;11780;13.904;100.620;2023-02-19T12:03:16;100935.97;;;30.47;57.90
23223;BME280;11780;13.904;100.620;2023-02-19T12:26:42;100950.28;;;30.81;57.85
23223;BME280;11780;13.904;100.620;2023-02-19T12:29:42;100956.78;;;30.85;57.70
23223;BME280;11780;13.904;100.620;2023-02-19T12:38:49;100965.22;;;30.80;57.11
23223;BME280;11780;13.904;100.620;2023-02-19T12:41:42;100970.09;;;30.83;57.79
23223;BME280;11780;13.904;100.620;2023-02-19T12:44:20;100970.09;;;30.83;57.99
23223;BME280;11780;13.904;100.620;2023-02-19T12:46:55;100971.59;;;30.89;58.15
23223;BME280;11780;13.904;100.620;2023-02-19T12:49:39;100979.41;;;30.87;57.92
23223;BME280;11780;13.904;100.620;2023-02-19T12:52:24;100985.22;;;30.86;57.92
23223;BME280;11780;13.904;100.620;2023-02-19T12:54:58;100987.97;;;30.86;58.22
23223;BME280;11780;13.904;100.620;2023-02-19T12:57:36;100991.06;;;30.84;57.92
23223;BME280;11780;13.904;100.620;2023-02-19T13:03:24;101001.13;;;30.80;58.35
23223;BME280;11780;13.904;100.620;2023-02-19T13:08:54;101002.25;;;30.79;58.71
23223;BME280;11780;13.904;100.620;2023-02-19T13:11:40;101004.19;;;30.78;58.46
23223;BME280;11780;13.904;100.620;2023-02-19T13:14:20;101008.91;;;30.78;58.87
23223;BME280;11780;13.904;100.620;2023-02-19T13:16:59;101013.28;;;30.79;59.24
23223;BME280;11780;13.904;100.620;2023-02-19T13:19:30;101007.13;;;30.82;58.78
23223;BME280;11780;13.904;100.620;2023-02-19T13:22:23;101022.06;;;30.81;58.80
23223;BME280;11780;13.904;100.620;2023-02-19T13:25:17;101021.56;;;30.79;58.99
23223;BME280;11780;13.904;100.620;2023-02-19T13:28:00;101029.06;;;30.78;59.13
23223;BME280;11780;13.904;100.620;2023-02-19T13:30:52;101032.63;;;30.79;58.99
23223;BME280;11780;13.904;100.620;2023-02-19T13:36:25;101040.56;;;30.72;59.65
23223;BME280;11780;13.904;100.620;2023-02-19T13:39:04;101045.13;;;30.76;59.15
23223;BME280;11780;13.904;100.620;2023-02-19T13:41:52;101037.28;;;30.70;59.50
23223;BME280;11780;13.904;100.620;2023-02-19T13:44:29;101046.88;;;30.72;59.31
23223;BME280;11780;13.904;100.620;2023-02-19T13:47:00;101044.28;;;30.76;58.66
23223;BME280;11780;13.904;100.620;2023-02-19T13:49:38;101041.53;;;30.76;58.21
23223;BME280;11780;13.904;100.620;2023-02-19T13:58:33;101058.75;;;30.73;58.25
23223;BME280;11780;13.904;100.620;2023-02-19T14:01:06;101053.84;;;30.70;58.70
23223;BME280;11780;13.904;100.620;2023-02-19T14:04:05;101069.59;;;30.69;58.41
23223;BME280;11780;13.904;100.620;2023-02-19T14:09:47;101066.22;;;30.72;59.18
23223;BME280;11780;13.904;100.620;2023-02-19T14:12:21;101070.72;;;30.68;58.96
23223;BME280;11780;13.904;100.620;2023-02-19T14:17:55;101073.47;;;30.68;58.88
23223;BME280;11780;13.904;100.620;2023-02-19T14:20:44;101079.34;;;30.66;58.90
23223;BME280;11780;13.904;100.620;2023-02-19T14:23:21;101083.22;;;30.65;58.85
23223;BME280;11780;13.904;100.620;2023-02-19T14:25:57;101088.75;;;30.65;59.11
23223;BME280;11780;13.904;100.620;2023-02-19T14:28:35;101090.69;;;30.65;59.18
23223;BME280;11780;13.904;100.620;2023-02-19T14:31:28;101095.41;;;30.64;59.38
23223;BME280;11780;13.904;100.620;2023-02-19T14:34:04;101099.28;;;30.63;59.02
23223;BME280;11780;13.904;100.620;2023-02-19T14:41:52;101093.75;;;30.63;59.08
23223;BME280;11780;13.904;100.620;2023-02-19T14:44:34;101109.09;;;30.70;59.18
23223;BME280;11780;13.904;100.620;2023-02-19T14:47:14;101106.00;;;30.71;58.64
23223;BME280;11780;13.904;100.620;2023-02-19T14:49:58;101098.66;;;30.66;58.76
23223;BME280;11780;13.904;100.620;2023-02-19T14:52:46;101111.34;;;30.67;58.91
23223;BME280;11780;13.904;100.620;2023-02-19T14:55:28;101106.13;;;30.66;59.04
23223;BME280;11780;13.904;100.620;2023-02-19T14:58:03;101108.06;;;30.65;59.18
23223;BME280;11780;13.904;100.620;2023-02-19T15:00:36;101110.31;;;30.63;58.99
23223;BME280;11780;13.904;100.620;2023-02-19T15:03:35;101105.63;;;30.64;58.80
23223;BME280;11780;13.904;100.620;2023-02-19T15:06:11;101110.03;;;30.65;59.09
23223;BME280;11780;13.904;100.620;2023-02-19T15:08:46;101113.09;;;30.63;59.13
23223;BME280;11780;13.904;100.620;2023-02-19T15:11:21;101123.44;;;30.58;59.41
23223;BME280;11780;13.904;100.620;2023-02-19T15:13:58;101121.00;;;30.56;60.36
23223;BME280;11780;13.904;100.620;2023-02-19T15:16:31;101114.44;;;30.52;60.30
23223;BME280;11780;13.904;100.620;2023-02-19T15:19:06;101120.75;;;30.52;60.42
23223;BME280;11780;13.904;100.620;2023-02-19T15:21:44;101118.31;;;30.51;59.95
23223;BME280;11780;13.904;100.620;2023-02-19T15:24:17;101121.09;;;30.51;59.84
23223;BME280;11780;13.904;100.620;2023-02-19T15:26:51;101124.47;;;30.48;59.90
23223;BME280;11780;13.904;100.620;2023-02-19T15:29:27;101124.47;;;30.48;59.72
23223;BME280;11780;13.904;100.620;2023-02-19T15:32:00;101122.81;;;30.47;60.19
23223;BME280;11780;13.904;100.620;2023-02-19T15:34:31;101123.34;;;30.49;60.27
23223;BME280;11780;13.904;100.620;2023-02-19T15:37:06;101118.44;;;30.46;60.42
23223;BME280;11780;13.904;100.620;2023-02-19T15:39:44;101123.94;;;30.46;60.24
23223;BME280;11780;13.904;100.620;2023-02-19T15:42:29;101118.75;;;30.44;60.53
23223;BME280;11780;13.904;100.620;2023-02-19T15:45:38;101111.59;;;30.43;60.66
23223;BME280;11780;13.904;100.620;2023-02-19T15:48:07;101116.50;;;30.46;59.91
23223;BME280;11780;13.904;100.620;2023-02-19T15:50:46;101116.78;;;30.45;60.16
23223;BME280;11780;13.904;100.620;2023-02-19T15:53:24;101110.47;;;30.44;59.65
23223;BME280;11780;13.904;100.620;2023-02-19T15:56:14;101109.16;;;30.42;60.42
23223;BME280;11780;13.904;100.620;2023-02-19T15:58:48;101113.56;;;30.43;59.94
23223;BME280;11780;13.904;100.620;2023-02-19T16:01:34;101111.59;;;30.43;60.12
23223;BME280;11780;13.904;100.620;2023-02-19T16:04:13;101115.19;;;30.44;60.09
23223;BME280;11780;13.904;100.620;2023-02-19T16:07:25;101115.19;;;30.44;59.70
23223;BME280;11780;13.904;100.620;2023-02-19T16:10:17;101114.69;;;30.42;59.91
23223;BME280;11780;13.904;100.620;2023-02-19T16:12:59;101113.84;;;30.41;60.06
23223;BME280;11780;13.904;100.620;2023-02-19T16:15:30;101103.75;;;30.36;60.12
23223;BME280;11780;13.904;100.620;2023-02-19T16:18:02;101107.53;;;30.41;59.70
23223;BME280;11780;13.904;100.620;2023-02-19T16:20:33;101105.56;;;30.41;60.11
23223;BME280;11780;13.904;100.620;2023-02-19T16:23:12;101104.25;;;30.38;59.90
23223;BME280;11780;13.904;100.620;2023-02-19T16:25:45;101108.16;;;30.37;59.91
23223;BME280;11780;13.904;100.620;2023-02-19T16:28:21;101112.03;;;30.36;60.39
23223;BME280;11780;13.904;100.620;2023-02-19T16:33:43;101098.56;;;30.35;60.15
23223;BME280;11780;13.904;100.620;2023-02-19T16:36:37;101107.31;;;30.37;59.86
23223;BME280;11780;13.904;100.620;2023-02-19T16:39:15;101107.97;;;30.34;59.82
23223;BME280;11780;13.904;100.620;2023-02-19T16:46:54;101101.78;;;30.37;60.07
23223;BME280;11780;13.904;100.620;2023-02-19T16:49:26;101093.84;;;30.35;60.13
23223;BME280;11780;13.904;100.620;2023-02-19T16:51:58;101096.28;;;30.37;59.94
23223;BME280;11780;13.904;100.620;2023-02-19T16:54:31;101095.47;;;30.36;60.01
23223;BME280;11780;13.904;100.620;2023-02-19T16:57:01;101098.22;;;30.36;59.82
23223;BME280;11780;13.904;100.620;2023-02-19T16:59:31;101095.47;;;30.36;59.77
23223;BME280;11780;13.904;100.620;2023-02-19T17:02:03;101101.78;;;30.37;59.94
23223;BME280;11780;13.904;100.620;2023-02-19T17:04:34;101094.66;;;30.36;59.48
23223;BME280;11780;13.904;100.620;2023-02-19T17:07:13;101092.72;;;30.36;60.42
23223;BME280;11780;13.904;100.620;2023-02-19T17:09:43;101097.72;;;30.34;60.10
23223;BME280;11780;13.904;100.620;2023-02-19T17:12:15;101088.31;;;30.35;59.99
23223;BME280;11780;13.904;100.620;2023-02-19T17:14:46;101098.56;;;30.35;59.94
23223;BME280;11780;13.904;100.620;2023-02-19T17:17:16;101096.59;;;30.35;60.19
23223;BME280;11780;13.904;100.620;2023-02-19T17:19:47;101092.53;;;30.33;60.34
23223;BME280;11780;13.904;100.620;2023-02-19T17:22:17;101092.81;;;30.31;60.03
23223;BME280;11780;13.904;100.620;2023-02-19T17:24:49;101097.22;;;30.32;59.87
23223;BME280;11780;13.904;100.620;2023-02-19T17:27:20;101097.72;;;30.34;59.67
23223;BME280;11780;13.904;100.620;2023-02-19T17:29:53;101092.53;;;30.33;59.79
23223;BME280;11780;13.904;100.620;2023-02-19T17:32:23;101101.09;;;30.31;59.90
23223;BME280;11780;13.904;100.620;2023-02-19T17:34:56;101091.69;;;30.32;59.96
23223;BME280;11780;13.904;100.620;2023-02-19T17:37:26;101087.00;;;30.33;59.99
23223;BME280;11780;13.904;100.620;2023-02-19T17:39:56;101083.41;;;30.32;60.21
23223;BME280;11780;13.904;100.620;2023-02-19T17:42:27;101080.97;;;30.31;60.25
23223;BME280;11780;13.904;100.620;2023-02-19T17:44:57;101077.38;;;30.30;60.10
23223;BME280;11780;13.904;100.620;2023-02-19T17:47:28;101074.63;;;30.30;60.18
23223;BME280;11780;13.904;100.620;2023-02-19T17:49:58;101066.34;;;30.30;60.34
23223;BME280;11780;13.904;100.620;2023-02-19T17:52:29;101073.50;;;30.31;59.55
23223;BME280;11780;13.904;100.620;2023-02-19T17:55:00;101075.75;;;30.29;59.79
23223;BME280;11780;13.904;100.620;2023-02-19T17:57:30;101069.13;;;30.30;59.65
23223;BME280;11780;13.904;100.620;2023-02-19T18:00:03;101067.81;;;30.28;60.34
23223;BME280;11780;13.904;100.620;2023-02-19T18:05:38;101065.88;;;30.28;60.54
23223;BME280;11780;13.904;100.620;2023-02-19T18:08:08;101063.41;;;30.27;60.01
23223;BME280;11780;13.904;100.620;2023-02-19T18:10:42;101063.91;;;30.29;59.69
23223;BME280;11780;13.904;100.620;2023-02-19T18:13:12;101057.09;;;30.26;60.37
23223;BME280;11780;13.904;100.620;2023-02-19T18:15:42;101057.28;;;30.30;59.42
23223;BME280;11780;13.904;100.620;2023-02-19T18:18:12;101051.56;;;30.26;60.46
23223;BME280;11780;13.904;100.620;2023-02-19T18:20:43;101053.50;;;30.26;59.85
23223;BME280;11780;13.904;100.620;2023-02-19T18:23:13;101054.00;;;30.28;59.80
23223;BME280;11780;13.904;100.620;2023-02-19T18:25:43;101052.38;;;30.27;60.30
23223;BME280;11780;13.904;100.620;2023-02-19T18:28:18;101053.22;;;30.27;60.33
23223;BME280;11780;13.904;100.620;2023-02-19T18:30:48;101049.09;;;30.25;60.49
23223;BME280;11780;13.904;100.620;2023-02-19T18:33:19;101043.28;;;30.26;60.22
23223;BME280;11780;13.904;100.620;2023-02-19T18:35:49;101043.59;;;30.25;60.20
23223;BME280;11780;13.904;100.620;2023-02-19T18:38:20;101041.16;;;30.23;59.88
23223;BME280;11780;13.904;100.620;2023-02-19T18:40:50;101042.28;;;30.22;59.92
23223;BME280;11780;13.904;100.620;2023-02-19T18:43:20;101040.31;;;30.22;60.11
23223;BME280;11780;13.904;100.620;2023-02-19T18:45:50;101041.44;;;30.21;59.50
23223;BME280;11780;13.904;100.620;2023-02-19T18:48:20;101037.09;;;30.20;59.94
23223;BME280;11780;13.904;100.620;2023-02-19T18:50:50;101040.13;;;30.19;59.38
23223;BME280;11780;13.904;100.620;2023-02-19T18:53:20;101034.63;;;30.19;59.50
23223;BME280;11780;13.904;100.620;2023-02-19T18:55:50;101033.50;;;30.20;58.81
23223;BME280;11780;13.904;100.620;2023-02-19T18:58:21;101032.69;;;30.19;59.02
23223;BME280;11780;13.904;100.620;2023-02-19T19:00:54;101029.09;;;30.19;58.67
23223;BME280;11780;13.904;100.620;2023-02-19T19:03:24;101033.81;;;30.18;58.79
23223;BME280;11780;13.904;100.620;2023-02-19T19:05:54;101031.06;;;30.18;58.63
23223;BME280;11780;13.904;100.620;2023-02-19T19:08:24;101030.22;;;30.18;58.75
23223;BME280;11780;13.904;100.620;2023-02-19T19:10:57;101026.66;;;30.17;58.06
23223;BME280;11780;13.904;100.620;2023-02-19T19:13:27;101026.66;;;30.17;58.25
23223;BME280;11780;13.904;100.620;2023-02-19T19:15:57;101031.84;;;30.19;57.94
23223;BME280;11780;13.904;100.620;2023-02-19T19:18:27;101023.91;;;30.17;58.33
23223;BME280;11780;13.904;100.620;2023-02-19T19:20:58;101024.19;;;30.16;58.08
23223;BME280;11780;13.904;100.620;2023-02-19T19:23:31;101019.00;;;30.14;58.18
23223;BME280;11780;13.904;100.620;2023-02-19T19:26:05;101017.03;;;30.15;57.83
23223;BME280;11780;13.904;100.620;2023-02-19T19:28:36;101022.56;;;30.15;57.75
23223;BME280;11780;13.904;100.620;2023-02-19T19:31:14;101012.66;;;30.14;57.71
23223;BME280;11780;13.904;100.620;2023-02-19T19:33:45;101025.66;;;30.13;57.99
23223;BME280;11780;13.904;100.620;2023-02-19T19:36:20;101030.66;;;30.11;57.47
23223;BME280;11780;13.904;100.620;2023-02-19T19:38:51;101028.72;;;30.12;57.43
23223;BME280;11780;13.904;100.620;2023-02-19T19:41:21;101016.34;;;30.09;58.12
23223;BME280;11780;13.904;100.620;2023-02-19T19:43:52;101023.50;;;30.10;57.80
23223;BME280;11780;13.904;100.620;2023-02-19T19:46:22;101021.06;;;30.08;57.62
23223;BME280;11780;13.904;100.620;2023-02-19T19:48:52;101023.84;;;30.08;57.71
23223;BME280;11780;13.904;100.620;2023-02-19T19:51:22;101019.94;;;30.10;57.47
23223;BME280;11780;13.904;100.620;2023-02-19T19:53:52;101016.69;;;30.07;57.40
23223;BME280;11780;13.904;100.620;2023-02-19T19:56:23;101015.84;;;30.07;57.12
23223;BME280;11780;13.904;100.620;2023-02-19T19:58:53;101019.13;;;30.09;56.93
23223;BME280;11780;13.904;100.620;2023-02-19T20:01:23;101018.31;;;30.08;56.85
23223;BME280;11780;13.904;100.620;2023-02-19T20:03:53;101021.06;;;30.08;56.63
23223;BME280;11780;13.904;100.620;2023-02-19T20:06:28;101026.88;;;30.07;56.62
23223;BME280;11780;13.904;100.620;2023-02-19T20:08:59;101018.59;;;30.07;56.61
23223;BME280;11780;13.904;100.620;2023-02-19T20:11:30;101021.69;;;30.05;56.52
23223;BME280;11780;13.904;100.620;2023-02-19T20:13:59;101025.56;;;30.04;56.54
23223;BME280;11780;13.904;100.620;2023-02-19T20:16:29;101021.69;;;30.05;56.58
23223;BME280;11780;13.904;100.620;2023-02-19T20:18:59;101014.03;;;30.02;56.92
23223;BME280;11780;13.904;100.620;2023-02-19T20:21:29;101018.75;;;30.02;56.69
23223;BME280;11780;13.904;100.620;2023-02-19T20:23:59;101019.03;;;30.00;56.69
23223;BME280;11780;13.904;100.620;2023-02-19T20:26:38;101011.59;;;30.01;56.78
23223;BME280;11780;13.904;100.620;2023-02-19T20:29:08;101022.91;;;29.99;56.71
23223;BME280;11780;13.904;100.620;2023-02-19T20:31:50;101018.25;;;30.00;56.87
23223;BME280;11780;13.904;100.620;2023-02-19T20:34:22;101019.03;;;30.00;56.77
23223;BME280;11780;13.904;100.620;2023-02-19T20:36:52;101032.03;;;30.00;56.60
23223;BME280;11780;13.904;100.620;2023-02-19T20:39:23;101033.47;;;29.97;56.95
23223;BME280;11780;13.904;100.620;2023-02-19T20:41:58;101032.31;;;29.98;57.10
23223;BME280;11780;13.904;100.620;2023-02-19T20:44:28;101035.06;;;29.98;56.68
23223;BME280;11780;13.904;100.620;2023-02-19T20:46:59;101039.78;;;29.98;57.28
23223;BME280;11780;13.904;100.620;2023-02-19T20:49:31;101037.84;;;29.98;57.40
23223;BME280;11780;13.904;100.620;2023-02-19T20:52:06;101041.75;;;29.97;57.34
23223;BME280;11780;13.904;100.620;2023-02-19T20:54:36;101037.34;;;29.96;57.62
23223;BME280;11780;13.904;100.620;2023-02-19T20:57:07;101036.22;;;29.97;57.56
23223;BME280;11780;13.904;100.620;2023-02-19T20:59:38;101040.13;;;29.96;57.83
23223;BME280;11780;13.904;100.620;2023-02-19T21:02:17;101038.47;;;29.95;58.12
23223;BME280;11780;13.904;100.620;2023-02-19T21:04:48;101045.09;;;29.94;58.27
23223;BME280;11780;13.904;100.620;2023-02-19T21:07:19;101057.25;;;29.93;58.32
23223;BME280;11780;13.904;100.620;2023-02-19T21:09:49;101049.25;;;29.91;58.61
23223;BME280;11780;13.904;100.620;2023-02-19T21:12:21;101053.66;;;29.92;58.59
23223;BME280;11780;13.904;100.620;2023-02-19T21:14:51;101053.91;;;29.96;58.78
23223;BME280;11780;13.904;100.620;2023-02-19T21:17:21;101054.50;;;29.93;58.42